Time;durP1;ratioP1;P1;durP2;ratioP2;P2;SDS_P1;SDS_P2;PMS_P1;PMS_P2;Temp;Humidity;BMP_temperature;BMP_pressure;BME280_temperature;BME280_humidity;BME280_pressure;Samples;Min_cycle;Max_cycle;Signal;HPM_P1;HPM_P2
2020/12/12 00:00:30;;;;;;;60.42;32.97;;;;;;;7.40;86.32;98869.94;5145398;27;20143;-65
2020/12/12 00:02:55;;;;;;;60.85;30.15;;;;;;;7.64;84.64;98875.22;5145248;27;20019;-65
2020/12/12 00:05:21;;;;;;;57.75;29.63;;;;;;;7.57;84.67;98877.69;5145287;27;20079;-65
2020/12/12 00:07:46;;;;;;;58.30;28.77;;;;;;;7.56;84.53;98869.97;5145452;27;20098;-65
2020/12/12 00:10:11;;;;;;;58.45;29.80;;;;;;;7.50;85.36;98870.63;5145221;27;20023;-65
2020/12/12 00:12:37;;;;;;;60.55;30.40;;;;;;;7.56;85.30;98862.06;5145007;27;20102;-65
2020/12/12 00:15:05;;;;;;;60.83;30.45;;;;;;;7.71;83.58;98868.31;5145040;27;20031;-65
2020/12/12 00:17:31;;;;;;;56.22;29.95;;;;;;;7.61;83.84;98855.31;5145523;27;20212;-64
2020/12/12 00:19:56;;;;;;;59.47;29.25;;;;;;;7.39;85.21;98868.31;5145253;27;20042;-65
2020/12/12 00:22:22;;;;;;;58.05;29.70;;;;;;;7.40;86.51;98862.88;5145470;27;20087;-65
2020/12/12 00:24:47;;;;;;;62.67;32.67;;;;;;;7.33;86.37;98862.69;5145286;27;20015;-65
2020/12/12 00:27:13;;;;;;;66.60;34.25;;;;;;;7.46;85.80;98864.03;5144733;27;20194;-65
2020/12/12 00:29:38;;;;;;;73.15;34.45;;;;;;;7.47;85.64;98865.69;5144801;27;20245;-65
2020/12/12 00:32:04;;;;;;;64.35;33.10;;;;;;;7.50;85.79;98863.53;5145166;27;20217;-65
2020/12/12 00:34:29;;;;;;;64.97;31.02;;;;;;;7.50;86.01;98857.44;5144698;27;20031;-65
2020/12/12 00:36:55;;;;;;;64.63;33.17;;;;;;;7.49;85.78;98851.34;5145035;27;20090;-65
2020/12/12 00:39:22;;;;;;;64.65;33.03;;;;;;;7.55;85.88;98855.16;5126242;27;20361;-65
2020/12/12 00:41:48;;;;;;;78.65;36.20;;;;;;;7.49;86.29;98850.53;5144026;27;20031;-65
2020/12/12 00:44:15;;;;;;;81.35;39.60;;;;;;;7.61;85.63;98851.84;5144551;27;20023;-65
2020/12/12 00:46:41;;;;;;;100.93;40.00;;;;;;;7.52;86.34;98843.13;5144778;27;20031;-65
2020/12/12 00:49:07;;;;;;;86.82;41.10;;;;;;;7.62;86.52;98842.97;5144524;27;20090;-65
2020/12/12 00:51:33;;;;;;;90.55;40.15;;;;;;;7.56;86.45;98840.97;5144655;27;20062;-65
2020/12/12 00:53:59;;;;;;;93.43;40.10;;;;;;;7.51;86.52;98840.66;5144233;27;20098;-65
2020/12/12 00:56:24;;;;;;;91.32;42.55;;;;;;;7.47;86.83;98836.69;5144583;27;20086;-65
2020/12/12 00:58:50;;;;;;;93.85;42.83;;;;;;;7.61;86.13;98828.97;5144197;27;20038;-65
2020/12/12 01:01:16;;;;;;;94.05;43.38;;;;;;;7.72;85.58;98821.72;5144534;27;20035;-65
2020/12/12 01:03:42;;;;;;;97.32;42.13;;;;;;;7.83;85.02;98821.38;5144183;27;20026;-65
2020/12/12 01:06:12;;;;;;;78.85;39.92;;;;;;;7.90;84.62;98823.16;5144366;27;20023;-65
2020/12/12 01:08:39;;;;;;;77.35;38.65;;;;;;;7.93;84.66;98817.56;5144166;27;20079;-65
2020/12/12 01:11:05;;;;;;;73.63;37.85;;;;;;;7.93;84.81;98814.09;5144159;27;20042;-65
2020/12/12 01:13:31;;;;;;;78.43;35.58;;;;;;;7.91;84.75;98809.00;5143946;27;20046;-65
2020/12/12 01:15:57;;;;;;;72.78;34.58;;;;;;;7.96;85.21;98804.03;5144175;27;20050;-65
2020/12/12 01:18:23;;;;;;;73.00;37.38;;;;;;;7.84;85.91;98809.84;5144101;27;20328;-65
2020/12/12 01:20:48;;;;;;;75.40;37.15;;;;;;;7.79;86.06;98799.78;5143971;27;20090;-65
2020/12/12 01:23:14;;;;;;;88.75;41.40;;;;;;;7.84;85.86;98794.03;5144019;27;20082;-65
2020/12/12 01:25:40;;;;;;;76.07;37.35;;;;;;;7.86;86.58;98787.59;5143962;28;20039;-65
2020/12/12 01:28:05;;;;;;;77.10;37.75;;;;;;;7.92;85.98;98773.75;5143701;28;20046;-65
2020/12/12 01:30:31;;;;;;;74.10;37.60;;;;;;;7.86;86.17;98779.69;5144068;28;20034;-65
2020/12/12 01:32:57;;;;;;;68.03;36.20;;;;;;;7.89;86.68;98781.16;5143758;28;20030;-65
2020/12/12 01:35:22;;;;;;;68.28;34.85;;;;;;;7.95;85.87;98767.31;5144211;28;20083;-65
2020/12/12 01:37:47;;;;;;;63.30;32.50;;;;;;;7.95;85.83;98767.31;5143818;28;20027;-65
2020/12/12 01:40:13;;;;;;;61.40;32.08;;;;;;;7.97;86.29;98754.78;5143851;28;20030;-65
2020/12/12 01:42:38;;;;;;;67.97;32.88;;;;;;;7.85;86.89;98756.97;5144396;28;20224;-65
2020/12/12 01:45:06;;;;;;;66.05;34.22;;;;;;;7.84;86.85;98746.59;5143743;28;20332;-65
2020/12/12 01:47:32;;;;;;;73.63;36.72;;;;;;;7.88;86.91;98748.72;5143625;28;20026;-65
2020/12/12 01:49:58;;;;;;;67.57;36.22;;;;;;;7.85;87.44;98745.59;5143968;28;20242;-65
2020/12/12 01:52:24;;;;;;;71.55;36.63;;;;;;;7.88;87.13;98743.44;5146043;27;20061;-65
2020/12/12 01:54:50;;;;;;;66.13;34.45;;;;;;;7.90;86.63;98748.53;5147586;27;20023;-65
2020/12/12 01:57:21;;;;;;;62.95;34.80;;;;;;;7.85;86.76;98735.06;5148150;27;20090;-65
2020/12/12 01:59:51;;;;;;;65.85;35.22;;;;;;;7.82;87.29;98730.13;5147596;27;20030;-65
2020/12/12 02:02:20;;;;;;;59.50;32.22;;;;;;;7.85;87.90;98730.59;5148144;27;20031;-65
2020/12/12 02:04:53;;;;;;;66.50;33.60;;;;;;;7.78;87.87;98731.44;5147627;27;20098;-65
2020/12/12 02:07:21;;;;;;;63.58;32.67;;;;;;;7.83;87.74;98719.41;5148114;27;20090;-65
2020/12/12 02:09:47;;;;;;;60.80;30.90;;;;;;;7.72;87.84;98713.69;5147555;27;20068;-65
2020/12/12 02:12:14;;;;;;;61.38;33.50;;;;;;;7.84;88.07;98723.69;5147493;27;20054;-65
2020/12/12 02:14:40;;;;;;;64.22;34.22;;;;;;;8.05;86.97;98719.66;5147240;27;20041;-65
2020/12/12 02:17:08;;;;;;;58.95;33.72;;;;;;;7.89;87.28;98716.09;5147827;27;20073;-65
2020/12/12 02:19:34;;;;;;;68.40;35.15;;;;;;;7.78;88.10;98702.47;5129033;27;20047;-65
2020/12/12 02:22:02;;;;;;;62.75;33.38;;;;;;;7.71;88.53;98707.59;5147615;27;20072;-65
2020/12/12 02:24:29;;;;;;;60.00;33.50;;;;;;;7.82;88.89;98704.59;5147143;27;20299;-65
2020/12/12 02:26:56;;;;;;;68.75;33.65;;;;;;;7.84;88.62;98699.97;5147518;27;20058;-65
2020/12/12 02:29:25;;;;;;;70.07;35.15;;;;;;;7.71;89.29;98698.84;5147178;27;20223;-65
2020/12/12 02:31:50;;;;;;;68.28;39.05;;;;;;;7.66;88.56;98692.28;5147426;27;20094;-65
2020/12/12 02:34:16;;;;;;;69.68;38.30;;;;;;;7.55;90.00;98690.00;5147070;27;20035;-65
2020/12/12 02:36:43;;;;;;;69.70;38.05;;;;;;;7.65;90.00;98674.81;5147362;27;20182;-65
2020/12/12 02:39:10;;;;;;;68.90;36.65;;;;;;;7.65;90.04;98680.09;5147030;27;20376;-65
2020/12/12 02:41:36;;;;;;;64.13;35.92;;;;;;;7.60;90.17;98678.97;5147333;27;20094;-65
2020/12/12 02:44:01;;;;;;;62.92;33.63;;;;;;;7.45;90.40;98672.75;5147097;27;20033;-65
2020/12/12 02:46:27;;;;;;;65.32;34.70;;;;;;;7.50;91.16;98668.63;5147049;27;20046;-65
2020/12/12 02:48:52;;;;;;;70.82;36.97;;;;;;;7.56;nan;98667.94;5146757;27;20034;-65
2020/12/12 02:51:18;;;;;;;64.43;35.75;;;;;;;7.46;91.45;98669.94;5146983;27;20076;-65
2020/12/12 02:53:47;;;;;;;69.10;35.92;;;;;;;7.48;90.93;98667.97;5146571;27;20258;-65
2020/12/12 02:56:16;;;;;;;69.10;37.15;;;;;;;7.47;91.94;98655.78;5146782;27;20098;-65
2020/12/12 02:58:42;;;;;;;66.40;36.40;;;;;;;7.47;91.77;98650.53;5146458;27;20019;-65
2020/12/12 03:01:08;;;;;;;71.38;35.83;;;;;;;7.32;92.40;98653.03;5146783;27;20274;-65
2020/12/12 03:03:33;;;;;;;72.00;36.47;;;;;;;7.34;92.53;98653.69;5145643;27;20029;-65
2020/12/12 03:06:00;;;;;;;69.28;36.67;;;;;;;7.44;92.55;98653.50;5146800;27;20300;-65
2020/12/12 03:08:27;;;;;;;72.85;39.13;;;;;;;7.36;92.15;98642.97;5146430;27;20304;-65
2020/12/12 03:10:53;;;;;;;69.18;37.35;;;;;;;7.47;92.57;98649.69;5146540;27;20050;-65
2020/12/12 03:13:18;;;;;;;70.07;37.13;;;;;;;7.57;91.27;98630.06;5146077;27;20054;-65
2020/12/12 03:15:44;;;;;;;75.20;38.42;;;;;;;7.43;91.24;98641.31;5146544;27;20042;-65
2020/12/12 03:18:09;;;;;;;74.18;38.97;;;;;;;7.41;92.50;98637.19;5146318;27;20251;-65
2020/12/12 03:20:35;;;;;;;67.53;36.08;;;;;;;7.44;92.07;98629.78;5146224;27;20039;-65
2020/12/12 03:23:00;;;;;;;68.55;35.60;;;;;;;7.59;91.20;98625.44;5145996;27;20205;-65
2020/12/12 03:25:25;;;;;;;61.53;34.25;;;;;;;7.56;91.11;98612.63;5127697;27;20019;-65
2020/12/12 03:27:51;;;;;;;73.78;38.20;;;;;;;7.52;91.50;98603.41;5145960;27;20331;-65
2020/12/12 03:30:16;;;;;;;78.20;41.15;;;;;;;7.41;91.94;98605.59;5145886;27;20031;-65
2020/12/12 03:32:42;;;;;;;77.82;41.25;;;;;;;7.23;92.59;98614.50;5145947;27;20095;-65
2020/12/12 03:35:07;;;;;;;78.53;39.10;;;;;;;7.44;91.72;98598.19;5145917;27;20086;-65
2020/12/12 03:37:33;;;;;;;76.70;39.78;;;;;;;7.24;92.45;98600.34;5146376;27;20072;-65
2020/12/12 03:39:58;;;;;;;72.15;38.90;;;;;;;7.28;92.72;98595.56;5145837;27;20299;-65
2020/12/12 03:42:23;;;;;;;72.00;39.03;;;;;;;7.23;92.98;98596.06;5146319;27;20267;-65
2020/12/12 03:44:49;;;;;;;76.70;38.13;;;;;;;7.38;92.87;98583.06;5145682;27;20046;-65
2020/12/12 03:47:15;;;;;;;80.75;40.08;;;;;;;7.38;92.69;98577.78;5146138;27;20031;-65
2020/12/12 03:49:40;;;;;;;75.10;38.53;;;;;;;7.36;91.95;98582.41;5145589;27;20027;-65
2020/12/12 03:52:06;;;;;;;74.53;37.25;;;;;;;7.36;92.33;98579.78;5145921;27;20086;-65
2020/12/12 03:54:31;;;;;;;73.88;38.63;;;;;;;7.42;92.21;98581.72;5145253;27;20381;-65
2020/12/12 03:56:57;;;;;;;72.18;37.13;;;;;;;7.38;92.76;98576.97;5145595;27;20027;-65
2020/12/12 03:59:22;;;;;;;91.72;42.75;;;;;;;7.25;92.03;98562.50;5145499;27;20055;-65
2020/12/12 04:01:48;;;;;;;80.32;40.42;;;;;;;7.26;92.40;98576.47;5127164;27;20027;-65
2020/12/12 04:04:14;;;;;;;78.93;40.08;;;;;;;7.25;92.78;98569.56;5145413;27;20388;-65
2020/12/12 04:06:39;;;;;;;81.68;42.47;;;;;;;7.25;93.46;98564.31;5145673;27;20102;-65
2020/12/12 04:09:04;;;;;;;85.32;42.88;;;;;;;7.38;92.65;98564.63;5145285;27;20083;-65
2020/12/12 04:11:30;;;;;;;77.80;41.35;;;;;;;7.36;91.90;98563.97;5145204;27;20390;-65
2020/12/12 04:13:55;;;;;;;78.90;38.83;;;;;;;7.27;92.68;98554.44;5144988;27;20019;-65
2020/12/12 04:16:21;;;;;;;77.47;40.38;;;;;;;7.27;92.98;98554.44;5145356;27;20026;-65
2020/12/12 04:18:46;;;;;;;75.95;37.63;;;;;;;7.28;93.76;98559.56;5144993;27;20312;-65
2020/12/12 04:21:12;;;;;;;78.40;38.83;;;;;;;7.29;93.54;98553.31;5145156;27;20035;-65
2020/12/12 04:23:37;;;;;;;73.20;38.28;;;;;;;7.24;93.31;98555.59;5144907;27;20015;-65
2020/12/12 04:26:03;;;;;;;72.15;37.17;;;;;;;7.35;92.96;98547.34;5126470;27;20065;-65
2020/12/12 04:28:29;;;;;;;72.95;37.10;;;;;;;7.29;93.62;98547.22;5144699;27;20026;-65
2020/12/12 04:30:55;;;;;;;69.43;36.47;;;;;;;7.31;93.18;98548.69;5126601;27;20023;-65
2020/12/12 04:33:20;;;;;;;72.70;38.30;;;;;;;7.30;93.33;98546.22;5144744;27;20090;-65
2020/12/12 04:35:46;;;;;;;67.78;35.33;;;;;;;7.42;92.57;98544.84;5144759;27;20381;-65
2020/12/12 04:38:11;;;;;;;67.82;36.58;;;;;;;7.38;92.76;98540.09;5145009;27;20023;-65
2020/12/12 04:40:37;;;;;;;65.80;36.30;;;;;;;7.59;92.21;98535.06;5144849;27;20089;-65
2020/12/12 04:43:03;;;;;;;68.43;35.90;;;;;;;7.43;92.41;98532.50;5144452;27;20240;-65
2020/12/12 04:45:31;;;;;;;68.57;37.03;;;;;;;7.45;93.47;98520.81;5144597;27;20038;-65
2020/12/12 04:47:57;;;;;;;73.70;40.53;;;;;;;7.51;92.76;98522.75;5126231;27;20015;-65
2020/12/12 04:50:28;;;;;;;73.68;40.17;;;;;;;7.30;92.81;98523.34;5144489;27;20132;-65
2020/12/12 04:52:57;;;;;;;83.88;43.30;;;;;;;7.31;93.77;98518.91;5144307;27;20027;-65
2020/12/12 04:55:24;;;;;;;85.20;42.90;;;;;;;7.29;94.26;98516.44;5144688;27;20078;-65
2020/12/12 04:57:52;;;;;;;83.38;44.38;;;;;;;7.26;93.88;98508.03;5144410;27;20063;-65
2020/12/12 05:00:19;;;;;;;83.22;43.08;;;;;;;7.28;93.53;98511.31;5144400;27;20027;-65
2020/12/12 05:02:46;;;;;;;83.85;43.28;;;;;;;7.29;93.63;98512.97;5125853;27;20194;-65
2020/12/12 05:05:11;;;;;;;81.35;41.60;;;;;;;7.40;93.79;98512.59;5144208;27;20347;-65
2020/12/12 05:07:37;;;;;;;73.40;38.42;;;;;;;7.55;93.46;98500.34;5144760;27;20039;-65
2020/12/12 05:10:04;;;;;;;70.75;37.65;;;;;;;7.59;91.96;98501.63;5144192;27;20379;-65
2020/12/12 05:12:29;;;;;;;77.43;39.58;;;;;;;7.33;93.47;98506.38;5144045;27;20067;-65
2020/12/12 05:14:55;;;;;;;78.97;40.78;;;;;;;7.32;94.41;98502.94;5144048;27;20232;-65
2020/12/12 05:17:20;;;;;;;78.18;39.28;;;;;;;7.41;93.94;98495.81;5144620;27;20098;-65
2020/12/12 05:19:50;;;;;;;70.07;39.88;;;;;;;7.30;94.49;98498.81;5143939;27;20031;-65
2020/12/12 05:22:16;;;;;;;83.47;42.63;;;;;;;7.38;94.42;98492.69;5144497;28;20212;-65
2020/12/12 05:24:42;;;;;;;75.97;40.60;;;;;;;7.36;94.10;98500.78;5125822;28;20224;-65
2020/12/12 05:27:08;;;;;;;79.18;40.50;;;;;;;7.48;94.03;98491.50;5143638;27;20038;-65
2020/12/12 05:29:34;;;;;;;79.35;41.33;;;;;;;7.55;93.84;98484.53;5125610;28;20023;-65
2020/12/12 05:31:59;;;;;;;84.10;42.80;;;;;;;7.39;93.25;98478.53;5144339;28;20332;-65
2020/12/12 05:34:26;;;;;;;84.13;46.10;;;;;;;7.30;94.47;98475.94;5143728;28;20027;-65
2020/12/12 05:36:52;;;;;;;85.55;47.13;;;;;;;7.41;94.25;98481.81;5144276;28;20065;-65
2020/12/12 05:39:18;;;;;;;81.47;45.53;;;;;;;7.42;93.83;98478.19;5143857;28;20031;-65
2020/12/12 05:41:46;;;;;;;89.43;46.72;;;;;;;7.45;93.61;98478.66;5144309;28;20225;-65
2020/12/12 05:44:12;;;;;;;83.38;44.70;;;;;;;7.54;93.90;98476.81;5143792;28;20317;-65
2020/12/12 05:46:38;;;;;;;88.25;44.95;;;;;;;7.43;93.88;98470.13;5144093;28;20039;-65
2020/12/12 05:49:04;;;;;;;84.07;42.45;;;;;;;7.51;93.69;98471.88;5143782;28;20019;-65
2020/12/12 05:51:31;;;;;;;82.90;41.35;;;;;;;7.56;93.44;98472.19;5143947;28;20030;-65
2020/12/12 05:53:58;;;;;;;89.82;44.60;;;;;;;7.38;93.77;98469.00;5143555;28;20031;-65
2020/12/12 05:56:24;;;;;;;81.97;42.85;;;;;;;7.45;94.15;98468.13;5143841;28;20047;-65
2020/12/12 05:58:51;;;;;;;82.60;41.58;;;;;;;7.32;93.69;98425.75;5143645;28;20031;-65
2020/12/12 06:01:20;;;;;;;81.03;40.92;;;;;;;7.46;94.43;98463.69;5143813;28;20027;-65
2020/12/12 06:04:03;;;;;;;84.18;41.78;;;;;;;7.46;93.54;98458.41;5143547;28;20328;-65
2020/12/12 06:06:28;;;;;;;75.47;39.50;;;;;;;7.45;94.47;98462.88;5143963;28;20104;-65
2020/12/12 06:09:07;;;;;;;72.50;38.28;;;;;;;7.49;93.98;98453.63;5143557;28;20035;-65
2020/12/12 06:11:34;;;;;;;74.18;38.55;;;;;;;7.26;94.59;98460.63;5143308;28;20043;-65
2020/12/12 06:14:03;;;;;;;67.90;36.83;;;;;;;7.37;94.53;98465.53;5143714;28;20027;-65
2020/12/12 06:16:31;;;;;;;62.40;33.97;;;;;;;7.36;94.76;98464.72;5143553;28;20046;-65
2020/12/12 06:18:56;;;;;;;60.38;34.42;;;;;;;7.29;95.57;98466.41;5143540;28;20027;-65
2020/12/12 06:21:23;;;;;;;66.15;33.28;;;;;;;7.33;95.24;98461.63;5143719;28;20362;-65
2020/12/12 06:23:49;;;;;;;79.07;42.10;;;;;;;7.38;95.74;98458.47;5143227;28;20030;-65
2020/12/12 06:26:20;;;;;;;77.95;43.72;;;;;;;7.42;95.48;98457.94;5143642;28;20041;-65
2020/12/12 06:28:46;;;;;;;72.88;38.63;;;;;;;7.44;95.62;98463.88;5124972;28;20212;-65
2020/12/12 06:31:13;;;;;;;66.40;35.17;;;;;;;7.48;95.69;98456.44;5143609;28;20062;-65
2020/12/12 06:33:52;;;;;;;84.65;45.08;;;;;;;7.52;94.52;98455.09;5143502;28;20027;-66
2020/12/12 06:36:32;;;;;;;71.90;36.28;;;;;;;7.41;95.33;98458.13;5143603;28;20038;-65
2020/12/12 06:39:19;;;;;;;71.95;35.42;;;;;;;7.45;95.61;98460.22;5144520;27;20061;-65
2020/12/12 06:41:47;;;;;;;75.22;38.28;;;;;;;7.42;95.69;98459.75;5147330;27;20205;-65
2020/12/12 06:44:29;;;;;;;70.40;36.20;;;;;;;7.47;96.75;98457.44;5146892;27;20027;-65
2020/12/12 06:46:54;;;;;;;56.20;31.42;;;;;;;7.52;95.76;98450.66;5147252;27;20035;-65
2020/12/12 06:49:23;;;;;;;51.95;29.10;;;;;;;7.31;96.42;98450.44;5146854;27;20213;-65
2020/12/12 06:51:52;;;;;;;66.10;32.45;;;;;;;7.34;97.01;98455.34;5147060;27;20027;-65
2020/12/12 06:54:18;;;;;;;78.28;37.10;;;;;;;7.42;97.32;98457.13;5146678;27;20054;-65
2020/12/12 06:56:44;;;;;;;94.97;43.80;;;;;;;7.53;96.57;98457.56;5146879;27;20258;-65
2020/12/12 06:59:34;;;;;;;103.03;46.63;;;;;;;7.42;97.59;98442.16;5146491;27;20031;-65
2020/12/12 07:02:07;;;;;;;86.30;42.30;;;;;;;7.62;97.52;98445.16;5146611;27;20038;-65
2020/12/12 07:04:37;;;;;;;81.38;36.90;;;;;;;7.70;97.03;98442.47;5146522;27;20325;-65
2020/12/12 07:07:11;;;;;;;66.03;35.17;;;;;;;7.84;96.56;98443.50;5146916;27;20299;-65
2020/12/12 07:09:40;;;;;;;64.75;34.13;;;;;;;7.85;96.35;98443.34;5146404;27;20027;-65
2020/12/12 07:12:06;;;;;;;67.10;33.80;;;;;;;7.66;96.73;98438.53;5146486;27;20080;-65
2020/12/12 07:14:32;;;;;;;64.18;33.15;;;;;;;7.80;96.19;98442.22;5146216;27;20023;-65
2020/12/12 07:17:00;;;;;;;74.38;38.78;;;;;;;7.90;95.62;98434.91;5146622;27;20026;-65
2020/12/12 07:19:37;;;;;;;67.03;36.60;;;;;;;7.93;96.06;98435.38;5127998;27;20336;-65
2020/12/12 07:22:08;;;;;;;65.93;36.95;;;;;;;7.99;96.12;98425.94;5146624;27;20027;-65
2020/12/12 07:24:33;;;;;;;64.85;35.33;;;;;;;7.90;95.96;98422.53;5146059;27;20339;-65
2020/12/12 07:27:00;;;;;;;67.45;36.17;;;;;;;7.92;95.51;98425.00;5145937;27;20023;-65
2020/12/12 07:29:27;;;;;;;73.65;40.00;;;;;;;8.02;95.49;98417.66;5146270;27;20038;-65
2020/12/12 07:31:52;;;;;;;81.45;41.75;;;;;;;8.06;95.68;98431.31;5146306;27;20030;-65
2020/12/12 07:34:19;;;;;;;81.38;42.88;;;;;;;8.10;95.03;98424.69;5127542;27;20030;-65
2020/12/12 07:36:45;;;;;;;75.55;39.67;;;;;;;8.12;95.25;98433.22;5146200;27;20045;-65
2020/12/12 07:39:11;;;;;;;67.35;36.88;;;;;;;8.16;95.43;98430.06;5127495;27;20039;-65
2020/12/12 07:41:45;;;;;;;69.43;38.20;;;;;;;8.27;94.49;98432.28;5146155;27;20038;-65
2020/12/12 07:44:11;;;;;;;68.18;36.58;;;;;;;8.19;94.51;98424.44;5145740;27;20030;-65
2020/12/12 07:46:40;;;;;;;72.80;39.85;;;;;;;8.24;94.64;98421.25;5145995;27;20350;-65
2020/12/12 07:49:09;;;;;;;61.88;33.08;;;;;;;8.17;94.14;98412.44;5145617;27;20019;-65
2020/12/12 07:51:35;;;;;;;62.72;33.85;;;;;;;8.20;94.70;98417.34;5145766;27;20115;-65
2020/12/12 07:54:19;;;;;;;65.45;33.15;;;;;;;8.07;94.82;98412.69;5145369;27;20026;-65
2020/12/12 07:56:54;;;;;;;70.55;34.55;;;;;;;8.14;95.33;98418.88;5145658;27;20031;-65
2020/12/12 07:59:20;;;;;;;61.85;30.67;;;;;;;8.02;95.39;98421.13;5145481;27;20027;-65
2020/12/12 08:01:50;;;;;;;63.63;32.90;;;;;;;8.11;95.54;98413.13;5145304;27;20031;-65
2020/12/12 08:04:24;;;;;;;89.28;52.42;;;;;;;8.16;94.89;98403.69;5145612;27;20301;-65
2020/12/12 08:06:50;;;;;;;77.00;38.55;;;;;;;8.06;95.14;98415.50;5145674;27;20422;-65
2020/12/12 08:09:24;;;;;;;58.90;32.30;;;;;;;8.29;94.29;98408.34;5145281;27;20019;-65
2020/12/12 08:12:00;;;;;;;43.80;25.17;;;;;;;8.19;94.80;98408.59;5126899;27;20035;-65
2020/12/12 08:14:29;;;;;;;45.33;24.48;;;;;;;8.17;94.79;98415.88;5145053;27;20042;-65
2020/12/12 08:16:57;;;;;;;47.28;26.88;;;;;;;8.34;94.39;98398.16;5145524;27;20152;-65
2020/12/12 08:19:23;;;;;;;57.78;29.95;;;;;;;8.31;94.62;98391.34;5145102;27;20417;-65
2020/12/12 08:21:53;;;;;;;52.90;28.05;;;;;;;8.20;95.05;98394.44;5126779;27;20039;-65
2020/12/12 08:24:19;;;;;;;52.42;28.40;;;;;;;8.13;95.62;98388.22;5145231;27;20023;-65
2020/12/12 08:26:44;;;;;;;54.85;30.35;;;;;;;8.15;95.34;98388.88;5144850;27;20332;-65
2020/12/12 08:29:10;;;;;;;70.43;35.90;;;;;;;8.34;94.94;98384.97;5144760;27;20125;-65
2020/12/12 08:31:38;;;;;;;74.90;38.95;;;;;;;8.44;94.56;98384.69;5145321;27;20288;-65
2020/12/12 08:34:04;;;;;;;52.70;29.77;;;;;;;8.61;93.14;98380.88;5144673;27;20076;-65
2020/12/12 08:36:30;;;;;;;40.42;22.98;;;;;;;8.18;94.55;98377.97;5144692;27;20206;-65
2020/12/12 08:38:58;;;;;;;39.40;21.13;;;;;;;8.22;94.66;98378.44;5144702;27;20240;-65
2020/12/12 08:41:38;;;;;;;47.47;26.05;;;;;;;8.17;94.91;98400.06;5145055;27;20030;-65
2020/12/12 08:44:05;;;;;;;46.83;25.13;;;;;;;8.29;95.04;98390.72;5144613;27;20031;-65
2020/12/12 08:46:31;;;;;;;38.42;21.45;;;;;;;8.21;94.99;98382.06;5144875;27;20027;-65
2020/12/12 08:48:56;;;;;;;37.15;18.05;;;;;;;7.99;95.66;98379.31;5144470;27;20305;-65
2020/12/12 08:51:30;;;;;;;30.20;17.00;;;;;;;8.04;95.18;98370.03;5144812;27;20019;-65
2020/12/12 08:53:56;;;;;;;29.92;18.08;;;;;;;7.93;96.13;98373.94;5144320;27;20030;-65
2020/12/12 08:56:22;;;;;;;32.05;18.98;;;;;;;8.07;95.89;98372.31;5144570;27;20031;-65
2020/12/12 08:59:00;;;;;;;35.67;18.95;;;;;;;8.18;95.70;98370.06;5144239;27;20053;-65
2020/12/12 09:01:28;;;;;;;37.58;20.45;;;;;;;8.12;95.72;98375.22;5143519;27;20060;-65
2020/12/12 09:04:16;;;;;;;32.78;18.95;;;;;;;8.05;95.96;98369.84;5144333;27;20090;-65
2020/12/12 09:06:41;;;;;;;35.42;19.90;;;;;;;8.13;95.33;98369.78;5144609;27;20369;-65
2020/12/12 09:09:10;;;;;;;35.60;18.80;;;;;;;8.09;95.50;98363.22;5144570;27;20027;-65
2020/12/12 09:11:38;;;;;;;32.53;19.50;;;;;;;7.95;95.51;98358.75;5144197;27;20053;-65
2020/12/12 09:14:04;;;;;;;31.92;18.17;;;;;;;8.04;95.77;98357.69;5144229;27;20027;-65
2020/12/12 09:16:30;;;;;;;31.50;18.45;;;;;;;8.10;95.49;98348.22;5144423;27;20132;-65
2020/12/12 09:18:57;;;;;;;41.40;20.13;;;;;;;8.18;95.63;98340.25;5144084;27;20023;-65
2020/12/12 09:21:23;;;;;;;41.20;20.58;;;;;;;8.30;94.36;98342.25;5144270;27;20027;-65
2020/12/12 09:23:48;;;;;;;40.33;18.63;;;;;;;8.33;94.47;98335.84;5143936;27;20056;-65
2020/12/12 09:26:14;;;;;;;46.55;22.30;;;;;;;8.42;94.59;98328.66;5144248;27;20026;-65
2020/12/12 09:28:39;;;;;;;54.35;22.90;;;;;;;8.47;94.94;98335.03;5143853;28;20317;-65
2020/12/12 09:31:06;;;;;;;36.42;18.35;;;;;;;8.47;93.59;98319.19;5144153;28;20034;-65
2020/12/12 09:33:32;;;;;;;33.40;16.88;;;;;;;8.53;94.44;98329.03;5143785;28;20031;-65
2020/12/12 09:35:57;;;;;;;25.83;14.40;;;;;;;8.47;94.15;98318.38;5143990;28;20023;-65
2020/12/12 09:38:23;;;;;;;28.52;14.55;;;;;;;8.42;94.46;98323.38;5125541;28;20031;-70
2020/12/12 09:40:51;;;;;;;20.42;13.00;;;;;;;8.33;93.96;98320.03;5143927;28;20039;-73
2020/12/12 09:43:18;;;;;;;21.92;13.50;;;;;;;8.43;94.67;98314.47;5125408;28;20071;-75
2020/12/12 09:45:45;;;;;;;23.85;12.57;;;;;;;8.36;94.42;98316.22;5143827;28;20031;-77
2020/12/12 09:48:11;;;;;;;24.33;13.55;;;;;;;8.35;94.22;98304.03;5125382;28;20059;-68
2020/12/12 09:50:37;;;;;;;24.27;13.05;;;;;;;8.26;95.24;98313.78;5143833;28;20090;-69
2020/12/12 09:53:04;;;;;;;25.42;12.35;;;;;;;8.41;93.81;98313.84;5143852;28;20023;-75
2020/12/12 09:55:31;;;;;;;25.17;13.65;;;;;;;8.32;94.69;98311.25;5143910;28;20030;-68
2020/12/12 09:57:57;;;;;;;23.85;13.43;;;;;;;8.32;95.01;98313.06;5143503;28;20086;-69
2020/12/12 10:00:23;;;;;;;26.70;14.50;;;;;;;8.41;94.35;98311.19;5143671;28;20352;-68
2020/12/12 10:02:49;;;;;;;30.63;15.73;;;;;;;8.40;94.53;98301.66;5143654;28;20099;-68
2020/12/12 10:05:15;;;;;;;26.42;12.80;;;;;;;8.47;95.04;98302.56;5143710;28;20031;-70
2020/12/12 10:07:40;;;;;;;26.83;13.43;;;;;;;8.53;94.84;98301.81;5125341;28;20027;-71
2020/12/12 10:10:06;;;;;;;28.45;14.15;;;;;;;8.61;94.17;98304.34;5143591;28;20050;-70
2020/12/12 10:12:31;;;;;;;25.23;13.90;;;;;;;8.54;93.81;98312.19;5125627;27;20051;-64
2020/12/12 10:14:57;;;;;;;22.00;11.25;;;;;;;8.42;94.19;98302.28;5147361;27;20360;-71
2020/12/12 10:17:22;;;;;;;10.13;6.30;;;;;;;8.41;94.18;98298.81;5147965;27;20023;-69
2020/12/12 10:19:48;;;;;;;12.60;7.80;;;;;;;8.34;94.67;98297.94;5147411;27;20038;-71
2020/12/12 10:22:13;;;;;;;11.55;7.07;;;;;;;8.25;95.16;98297.13;5147850;27;20127;-69
2020/12/12 10:24:39;;;;;;;10.48;6.53;;;;;;;8.16;95.58;98292.13;5147282;27;20035;-71
2020/12/12 10:27:04;;;;;;;9.55;5.80;;;;;;;8.35;94.03;98296.09;5147635;27;20039;-70
2020/12/12 10:29:30;;;;;;;9.85;5.47;;;;;;;8.32;94.08;98286.69;5147237;27;20224;-69
2020/12/12 10:31:55;;;;;;;18.67;11.52;;;;;;;8.23;94.14;98287.78;5147617;27;20410;-69
2020/12/12 10:34:20;;;;;;;11.77;7.53;;;;;;;8.24;94.60;98284.97;5147072;27;20340;-69
2020/12/12 10:36:46;;;;;;;13.57;6.95;;;;;;;8.28;95.15;98278.31;5128782;27;20037;-76
2020/12/12 10:39:12;;;;;;;17.63;9.98;;;;;;;8.54;94.54;98277.06;5147046;27;20031;-70
2020/12/12 10:41:37;;;;;;;17.42;11.40;;;;;;;8.67;93.75;98273.78;5147294;27;20042;-67
2020/12/12 10:44:03;;;;;;;12.23;7.20;;;;;;;8.67;93.20;98277.22;5146905;27;20324;-67
2020/12/12 10:46:28;;;;;;;17.88;11.52;;;;;;;8.50;94.45;98273.97;5146801;27;20034;-67
2020/12/12 10:48:54;;;;;;;13.98;9.15;;;;;;;8.57;94.95;98268.78;5146947;27;20037;-69
2020/12/12 10:51:19;;;;;;;15.00;9.70;;;;;;;8.69;94.22;98269.13;5147017;27;20104;-63
2020/12/12 10:53:45;;;;;;;31.45;20.00;;;;;;;8.64;94.52;98278.41;5146678;27;20027;-70
2020/12/12 10:56:11;;;;;;;16.40;10.18;;;;;;;8.80;94.55;98264.19;5128459;27;20031;-68
2020/12/12 10:58:36;;;;;;;15.10;9.15;;;;;;;8.91;93.32;98261.03;5146565;27;20044;-66
2020/12/12 11:01:02;;;;;;;20.45;11.43;;;;;;;8.89;94.57;98246.41;5146884;27;20098;-68
2020/12/12 11:03:28;;;;;;;39.10;26.52;;;;;;;9.20;93.71;98252.19;5146561;27;20061;-67
2020/12/12 11:05:53;;;;;;;20.15;14.23;;;;;;;9.10;93.57;98251.69;5146645;27;20027;-67
2020/12/12 11:08:19;;;;;;;13.90;9.00;;;;;;;9.17;94.61;98257.84;5146574;27;20037;-65
2020/12/12 11:10:44;;;;;;;13.55;7.70;;;;;;;9.26;94.85;98250.59;5146730;27;20094;-66
2020/12/12 11:13:10;;;;;;;12.35;8.13;;;;;;;9.41;93.86;98259.31;5146080;27;20343;-66
2020/12/12 11:15:38;;;;;;;23.88;13.45;;;;;;;9.37;94.24;98252.78;5146498;27;20369;-65
2020/12/12 11:18:04;;;;;;;41.33;21.33;;;;;;;9.44;93.58;98245.72;5146202;27;20056;-67
2020/12/12 11:20:29;;;;;;;22.08;16.73;;;;;;;9.49;93.91;98245.97;5146273;27;20027;-67
2020/12/12 11:22:55;;;;;;;17.35;12.80;;;;;;;9.65;92.33;98246.69;5146183;27;20046;-65
2020/12/12 11:25:21;;;;;;;23.25;18.10;;;;;;;9.56;93.46;98246.81;5145477;27;20298;-66